Time;durP1;ratioP1;P1;durP2;ratioP2;P2;SDS_P1;SDS_P2;PMS_P1;PMS_P2;Temp;Humidity;BMP_temperature;BMP_pressure;BME280_temperature;BME280_humidity;BME280_pressure;Samples;Min_cycle;Max_cycle;Signal;HPM_P1;HPM_P2
2022/08/12 00:44:41;;;;;;;9.82;5.95;;;19.60;56.40;;;;;;5026296;28;20036;-92
2022/08/12 00:47:16;;;;;;;9.15;6.05;;;19.30;56.50;;;;;;5014716;28;20030;-90
2022/08/12 00:49:42;;;;;;;8.32;5.55;;;19.10;58.00;;;;;;5015452;28;20560;-90
2022/08/12 00:52:13;;;;;;;8.65;6.18;;;19.10;61.90;;;;;;5014827;28;20129;-89
2022/08/12 00:54:43;;;;;;;8.23;5.40;;;19.00;62.60;;;;;;5009553;28;20044;-90
2022/08/12 00:57:17;;;;;;;8.35;5.88;;;19.00;60.90;;;;;;5008070;28;20057;-90
2022/08/12 00:59:46;;;;;;;7.00;5.57;;;19.00;65.90;;;;;;5014716;28;20044;-89
2022/08/12 01:02:22;;;;;;;8.40;4.97;;;18.90;65.60;;;;;;5029229;28;20081;-88
2022/08/12 01:13:02;;;;;;;7.35;5.63;;;18.90;64.50;;;;;;5009504;28;20109;-89
2022/08/12 01:15:28;;;;;;;8.05;5.10;;;18.90;59.90;;;;;;5028285;28;20045;-90
2022/08/12 01:17:53;;;;;;;8.00;5.25;;;18.80;63.30;;;;;;5000185;28;20481;-90
2022/08/12 01:20:36;;;;;;;7.38;5.65;;;18.70;64.80;;;;;;5017823;28;20109;-90
2022/08/12 01:23:33;;;;;;;11.75;5.47;;;18.70;65.50;;;;;;4997019;28;20072;-90
2022/08/12 01:26:01;;;;;;;11.48;6.50;;;18.70;62.50;;;;;;4975319;28;20148;-90
2022/08/12 01:28:27;;;;;;;9.00;5.80;;;18.70;63.30;;;;;;5018131;28;20030;-89
2022/08/12 01:30:53;;;;;;;10.38;5.47;;;18.90;56.60;;;;;;5013554;28;20744;-91
2022/08/12 01:33:18;;;;;;;8.60;5.90;;;18.90;58.10;;;;;;5004003;28;20052;-90
2022/08/12 01:35:48;;;;;;;10.40;6.10;;;18.90;59.10;;;;;;5008896;28;20029;-90
2022/08/12 01:38:18;;;;;;;9.32;6.00;;;18.90;56.30;;;;;;5015005;28;20026;-90
2022/08/12 01:40:44;;;;;;;8.82;6.07;;;18.90;55.70;;;;;;5007184;28;20053;-90
2022/08/12 01:43:12;;;;;;;9.50;5.90;;;19.00;56.20;;;;;;5008862;28;20398;-89
2022/08/12 01:45:48;;;;;;;7.13;6.22;;;19.00;55.50;;;;;;5020858;28;20034;-91
2022/08/12 01:48:42;;;;;;;10.45;6.20;;;18.90;54.80;;;;;;5028361;28;20030;-90
2022/08/12 01:51:41;;;;;;;8.82;6.20;;;18.90;58.30;;;;;;5046098;28;20535;-90
2022/08/12 01:54:19;;;;;;;7.45;6.25;;;18.70;56.40;;;;;;5009204;28;20064;-90
2022/08/12 01:57:15;;;;;;;6.50;5.85;;;18.50;61.50;;;;;;5014939;28;20030;-90
2022/08/12 01:59:45;;;;;;;9.35;6.10;;;18.20;64.00;;;;;;5010702;28;20100;-90
2022/08/12 02:02:15;;;;;;;6.65;5.90;;;18.10;64.30;;;;;;5026444;28;20030;-90
2022/08/12 02:11:18;;;;;;;8.60;6.32;;;18.20;64.20;;;;;;5015006;28;20407;-90
2022/08/12 02:13:58;;;;;;;10.77;6.82;;;18.20;61.60;;;;;;5028863;28;20036;-91
2022/08/12 02:16:59;;;;;;;10.57;7.30;;;18.10;64.40;;;;;;5043685;28;20090;-91
2022/08/12 02:19:58;;;;;;;7.78;6.90;;;17.90;67.30;;;;;;5017113;28;20490;-91
2022/08/12 02:22:36;;;;;;;9.75;7.60;;;17.70;69.20;;;;;;5026202;28;20081;-90
2022/08/12 02:25:27;;;;;;;13.55;7.10;;;17.70;66.40;;;;;;5014936;28;20037;-91
2022/08/12 02:27:54;;;;;;;7.72;5.80;;;17.60;68.30;;;;;;5033972;28;20009;-92
2022/08/12 02:30:21;;;;;;;13.30;7.45;;;17.50;65.40;;;;;;5008619;28;20013;-92
2022/08/12 02:32:48;;;;;;;15.05;7.95;;;17.50;67.30;;;;;;4974709;28;20048;-92
2022/08/12 02:35:18;;;;;;;10.20;7.82;;;17.50;66.50;;;;;;5014975;28;20056;-92
2022/08/12 02:37:44;;;;;;;14.00;7.07;;;17.50;67.60;;;;;;5030965;28;20046;-92
2022/08/12 02:40:11;;;;;;;11.07;6.90;;;17.70;63.40;;;;;;5012464;28;20033;-90
2022/08/12 02:42:38;;;;;;;10.10;7.35;;;17.60;63.90;;;;;;5015374;28;20091;-89
2022/08/12 02:45:05;;;;;;;12.30;7.28;;;17.50;69.70;;;;;;5004146;28;20037;-90
2022/08/12 02:47:33;;;;;;;12.25;7.78;;;17.30;71.90;;;;;;5015582;28;20044;-90
2022/08/12 02:49:58;;;;;;;13.73;7.10;;;17.30;72.00;;;;;;5008475;28;20026;-90
2022/08/12 02:52:27;;;;;;;11.45;7.35;;;17.20;67.70;;;;;;5010720;28;20054;-90
2022/08/12 02:54:57;;;;;;;12.13;7.72;;;17.10;70.50;;;;;;5017207;28;20037;-91
2022/08/12 02:57:22;;;;;;;12.15;7.60;;;17.10;71.00;;;;;;4999678;28;20036;-90
2022/08/12 02:59:48;;;;;;;13.23;7.38;;;17.10;71.90;;;;;;5006831;28;20113;-91
2022/08/12 03:02:15;;;;;;;9.93;7.30;;;17.00;74.90;;;;;;4997801;28;20493;-90
2022/08/12 03:04:45;;;;;;;9.07;6.53;;;17.00;73.70;;;;;;5023368;28;20034;-91
2022/08/12 03:07:24;;;;;;;9.13;7.72;;;17.00;72.40;;;;;;5001216;28;20026;-89
2022/08/12 03:10:10;;;;;;;12.13;8.18;;;17.00;71.00;;;;;;5010606;28;20037;-90
2022/08/12 03:12:44;;;;;;;11.70;7.25;;;16.90;67.50;;;;;;5012680;28;20034;-90
2022/08/12 03:15:14;;;;;;;11.98;7.70;;;16.80;67.60;;;;;;5013742;28;20033;-90
2022/08/12 03:17:42;;;;;;;9.85;7.47;;;16.70;71.10;;;;;;5011575;28;20045;-90
2022/08/12 03:20:09;;;;;;;10.23;8.10;;;16.70;70.40;;;;;;5044165;28;20083;-91
2022/08/12 03:22:39;;;;;;;9.10;7.32;;;16.80;71.00;;;;;;5013154;28;20120;-90
2022/08/12 03:25:04;;;;;;;11.13;7.95;;;16.80;75.10;;;;;;5018796;28;20109;-90
2022/08/12 03:27:39;;;;;;;10.32;7.35;;;16.70;75.70;;;;;;5025373;28;20101;-90
2022/08/12 03:30:05;;;;;;;12.20;8.15;;;16.90;67.70;;;;;;5015142;28;20073;-90
2022/08/12 03:32:32;;;;;;;9.85;8.35;;;17.00;73.10;;;;;;5015056;28;20037;-90
2022/08/12 03:34:58;;;;;;;11.43;7.95;;;16.80;73.30;;;;;;5025940;28;20111;-91
2022/08/12 03:37:23;;;;;;;10.57;8.40;;;16.60;73.60;;;;;;5025306;28;20093;-90
2022/08/12 03:39:49;;;;;;;10.55;8.93;;;16.60;70.60;;;;;;5018614;28;20135;-90
2022/08/12 03:42:31;;;;;;;12.43;8.77;;;16.40;67.90;;;;;;5025458;28;20036;-90
2022/08/12 04:01:58;;;;;;;10.73;7.97;;;16.30;82.30;;;;;;5029960;28;20044;-91
2022/08/12 04:04:32;;;;;;;10.48;8.50;;;16.30;78.50;;;;;;5015794;28;20691;-91
2022/08/12 04:06:58;;;;;;;11.63;8.27;;;16.30;81.60;;;;;;5016444;28;20108;-90
2022/08/12 04:09:23;;;;;;;14.00;8.35;;;16.30;84.10;;;;;;4999320;28;20057;-90
2022/08/12 04:14:35;;;;;;;14.82;7.43;;;16.20;88.50;;;;;;5028224;28;20087;-92
2022/08/12 04:17:01;;;;;;;11.45;8.20;;;16.20;90.00;;;;;;5027399;28;20116;-91
2022/08/12 04:19:27;;;;;;;8.55;7.65;;;16.20;91.20;;;;;;5019131;28;20160;-92
2022/08/12 04:21:56;;;;;;;13.43;8.18;;;16.20;91.30;;;;;;5017616;28;20486;-91
2022/08/12 04:24:24;;;;;;;11.65;8.32;;;16.30;85.30;;;;;;5002325;28;20330;-92
2022/08/12 04:26:50;;;;;;;11.05;8.35;;;16.20;90.60;;;;;;5015955;28;20058;-91
2022/08/12 04:29:15;;;;;;;9.20;8.27;;;16.10;91.00;;;;;;5007185;28;20515;-91
2022/08/12 04:31:42;;;;;;;14.30;8.27;;;16.10;88.10;;;;;;5002381;28;20037;-91
2022/08/12 04:34:14;;;;;;;10.55;8.73;;;16.10;88.60;;;;;;5013723;28;20053;-91
2022/08/12 04:36:40;;;;;;;9.95;9.05;;;16.20;89.40;;;;;;5021281;28;20057;-90
2022/08/12 04:39:06;;;;;;;10.40;8.48;;;16.10;85.50;;;;;;5032841;28;20036;-91
2022/08/12 04:41:32;;;;;;;10.32;9.18;;;16.00;81.40;;;;;;5000468;28;20079;-91
2022/08/12 04:43:58;;;;;;;12.18;8.48;;;16.00;89.80;;;;;;5031890;28;20148;-90
2022/08/12 04:46:33;;;;;;;12.95;8.57;;;16.10;85.70;;;;;;5024150;28;20639;-92
2022/08/12 04:48:59;;;;;;;12.93;8.33;;;16.20;89.10;;;;;;4994704;28;20029;-92
2022/08/12 04:51:25;;;;;;;16.77;8.85;;;16.30;88.60;;;;;;5009148;28;20117;-91
2022/08/12 04:53:51;;;;;;;15.27;9.05;;;16.40;87.60;;;;;;5016307;28;20046;-91
2022/08/12 04:56:16;;;;;;;11.23;9.00;;;16.50;84.90;;;;;;5011850;28;20036;-92
2022/08/12 04:58:42;;;;;;;11.55;8.80;;;16.60;80.20;;;;;;5022328;28;20032;-92
2022/08/12 05:01:08;;;;;;;14.63;9.02;;;16.70;82.70;;;;;;5016213;28;20033;-92
2022/08/12 05:03:34;;;;;;;13.55;8.77;;;16.70;78.40;;;;;;5019109;28;20041;-91
2022/08/12 05:06:00;;;;;;;12.60;9.00;;;16.70;79.40;;;;;;5016992;28;20034;-91
2022/08/12 05:08:26;;;;;;;10.38;8.90;;;16.80;80.80;;;;;;5013552;28;20157;-91
2022/08/12 05:10:51;;;;;;;10.02;8.40;;;17.00;79.20;;;;;;4993004;28;20021;-90
2022/08/12 05:13:21;;;;;;;11.35;8.15;;;17.10;78.30;;;;;;4998498;28;20416;-91
2022/08/12 05:15:47;;;;;;;16.45;9.30;;;17.20;77.50;;;;;;5006530;28;20041;-91
2022/08/12 05:18:13;;;;;;;9.13;8.32;;;17.30;77.30;;;;;;5005125;28;20037;-91
2022/08/12 05:20:39;;;;;;;13.23;8.82;;;17.40;77.30;;;;;;5020736;28;20716;-91
2022/08/12 05:23:14;;;;;;;8.90;7.88;;;17.40;76.60;;;;;;5019910;28;20117;-90
2022/08/12 05:25:43;;;;;;;12.10;8.13;;;17.60;76.00;;;;;;5014582;28;20044;-90
2022/08/12 05:28:09;;;;;;;9.23;7.55;;;17.70;76.20;;;;;;5015582;28;20365;-90
2022/08/12 05:30:35;;;;;;;12.55;8.63;;;17.80;77.40;;;;;;5026146;28;20061;-91
2022/08/12 05:33:06;;;;;;;12.73;8.02;;;18.00;76.60;;;;;;5019673;28;20037;-91
2022/08/12 05:35:35;;;;;;;11.90;8.18;;;18.10;75.20;;;;;;5019133;28;20029;-90
2022/08/12 05:40:54;;;;;;;9.50;7.53;;;18.50;73.90;;;;;;5010132;28;20036;-90
2022/08/12 05:43:19;;;;;;;12.02;7.35;;;18.60;73.90;;;;;;5002524;28;20033;-90
2022/08/12 05:45:45;;;;;;;11.52;7.38;;;18.70;73.70;;;;;;5006479;28;20068;-91
2022/08/12 05:48:14;;;;;;;9.23;7.43;;;18.90;73.60;;;;;;4987078;28;20034;-89
2022/08/12 05:50:40;;;;;;;10.05;7.93;;;19.10;73.50;;;;;;5011164;28;20038;-90
2022/08/12 05:53:05;;;;;;;9.48;7.80;;;19.30;72.50;;;;;;5006186;28;20065;-90
2022/08/12 05:55:32;;;;;;;8.75;7.00;;;19.40;72.90;;;;;;5019849;28;20029;-91
2022/08/12 05:57:57;;;;;;;8.57;7.07;;;19.50;74.00;;;;;;5028947;28;20549;-90
2022/08/12 06:00:24;;;;;;;10.82;7.18;;;19.80;72.90;;;;;;5014863;28;20029;-90
2022/08/12 06:02:59;;;;;;;8.10;6.75;;;19.90;72.30;;;;;;5005500;28;20043;-90
2022/08/12 06:05:35;;;;;;;7.28;6.57;;;20.00;71.80;;;;;;5001857;28;20045;-90
2022/08/12 06:08:05;;;;;;;10.45;6.80;;;20.20;72.20;;;;;;4987474;28;20074;-90
2022/08/12 06:10:33;;;;;;;13.45;7.68;;;20.30;72.80;;;;;;5032217;28;20025;-91
2022/08/12 06:13:04;;;;;;;9.98;6.88;;;20.50;72.70;;;;;;5004303;28;20087;-91
2022/08/12 06:15:30;;;;;;;13.35;7.47;;;20.70;71.80;;;;;;5029426;28;20034;-90
2022/08/12 06:18:06;;;;;;;9.45;6.70;;;20.80;72.50;;;;;;5031293;28;20089;-90
2022/08/12 06:20:31;;;;;;;8.50;6.93;;;21.00;71.90;;;;;;5010548;28;20079;-91
2022/08/12 06:22:57;;;;;;;9.35;7.20;;;21.20;71.00;;;;;;5011906;28;20094;-90
2022/08/12 06:25:26;;;;;;;8.23;6.88;;;21.30;71.40;;;;;;5014064;28;20033;-90
2022/08/12 06:27:54;;;;;;;7.35;5.97;;;21.40;73.10;;;;;;5015790;28;20116;-91
2022/08/12 06:30:20;;;;;;;9.57;6.75;;;21.50;67.30;;;;;;5006912;28;20507;-91
2022/08/12 06:32:46;;;;;;;10.95;7.28;;;21.70;70.40;;;;;;4983197;28;20037;-91
2022/08/12 06:35:12;;;;;;;10.43;7.05;;;21.90;71.30;;;;;;5017589;28;20116;-91
2022/08/12 06:37:51;;;;;;;11.90;6.32;;;22.00;71.20;;;;;;5013836;28;20095;-92
2022/08/12 06:42:46;;;;;;;9.10;6.18;;;22.30;70.70;;;;;;4995000;28;20104;-91
2022/08/12 06:43:05;;;;;;;12.48;6.25;;;22.40;70.70;;;;;;5025286;28;20629;-91
2022/08/12 06:45:31;;;;;;;6.57;5.70;;;22.50;70.10;;;;;;5013431;28;20026;-90
2022/08/12 06:47:58;;;;;;;12.38;5.93;;;22.70;70.50;;;;;;5024502;28;20149;-90
2022/08/12 06:50:25;;;;;;;8.35;5.30;;;22.80;69.70;;;;;;5017218;28;20030;-91
2022/08/12 06:52:51;;;;;;;7.78;4.97;;;23.00;69.20;;;;;;5015807;28;20056;-90
2022/08/12 06:55:19;;;;;;;7.63;5.53;;;23.20;67.80;;;;;;5020952;28;20041;-89
2022/08/12 06:57:53;;;;;;;6.38;5.18;;;23.30;68.30;;;;;;5012695;28;20041;-90
2022/08/12 07:00:22;;;;;;;9.15;4.65;;;23.40;67.90;;;;;;4990739;28;20014;-90
2022/08/12 07:02:49;;;;;;;7.80;5.65;;;23.60;67.20;;;;;;5019504;28;20037;-90
2022/08/12 07:05:23;;;;;;;8.73;5.03;;;23.80;67.10;;;;;;5027292;28;20627;-90
2022/08/12 07:08:01;;;;;;;6.05;5.43;;;24.00;67.00;;;;;;5019260;28;20068;-89
2022/08/12 07:10:31;;;;;;;8.45;5.28;;;24.10;64.00;;;;;;5048474;28;20026;-89
2022/08/12 07:12:59;;;;;;;7.78;5.38;;;24.30;65.20;;;;;;5015155;28;20064;-89
2022/08/12 07:15:27;;;;;;;6.07;4.85;;;24.50;65.00;;;;;;5015492;28;20049;-89
2022/08/12 07:18:10;;;;;;;10.98;4.50;;;24.70;64.50;;;;;;5014048;28;20030;-89
2022/08/12 07:20:39;;;;;;;7.15;4.93;;;24.80;63.60;;;;;;5015199;28;20042;-90
2022/08/12 07:23:05;;;;;;;14.30;5.10;;;25.00;62.80;;;;;;5021592;28;20036;-89
2022/08/12 07:25:33;;;;;;;6.85;4.22;;;25.10;63.10;;;;;;4991486;28;20033;-90
2022/08/12 07:28:03;;;;;;;6.47;4.90;;;25.20;59.90;;;;;;5031948;28;20037;-89
2022/08/12 07:30:33;;;;;;;6.72;4.10;;;25.30;61.80;;;;;;5016820;28;20580;-90
2022/08/12 07:33:00;;;;;;;8.48;4.00;;;25.40;61.90;;;;;;5029174;28;20045;-90
2022/08/12 07:35:27;;;;;;;4.13;3.67;;;25.60;62.20;;;;;;5027620;28;20490;-89
2022/08/12 07:37:54;;;;;;;5.22;3.83;;;25.80;61.60;;;;;;5015280;28;20060;-89
2022/08/12 07:40:20;;;;;;;3.85;3.45;;;26.00;59.60;;;;;;5004426;28;20836;-89
2022/08/12 07:42:46;;;;;;;10.75;5.10;;;26.00;58.20;;;;;;5016147;28;20428;-89
2022/08/12 07:45:11;;;;;;;7.30;3.97;;;26.20;61.00;;;;;;5026965;28;20037;-88
2022/08/12 07:47:42;;;;;;;7.25;4.10;;;26.40;60.50;;;;;;5015488;28;20041;-89
2022/08/12 07:50:11;;;;;;;10.85;4.07;;;26.60;59.90;;;;;;5014075;28;20045;-89
2022/08/12 07:52:37;;;;;;;9.13;4.20;;;26.70;59.20;;;;;;5013619;28;20191;-90
2022/08/12 07:55:03;;;;;;;3.92;3.50;;;26.90;59.20;;;;;;5012543;28;20030;-88
2022/08/12 07:57:31;;;;;;;8.77;3.95;;;27.10;58.30;;;;;;5011943;28;20446;-88
2022/08/12 08:00:03;;;;;;;5.45;3.50;;;27.30;57.90;;;;;;5029362;28;20033;-89
2022/08/12 08:02:32;;;;;;;4.22;3.47;;;27.30;58.30;;;;;;5024110;28;20056;-90
2022/08/12 08:04:59;;;;;;;5.78;3.50;;;27.50;57.00;;;;;;5030901;28;20079;-88
2022/08/12 08:07:26;;;;;;;4.93;3.22;;;27.60;56.20;;;;;;4997012;28;20064;-89
2022/08/12 08:09:56;;;;;;;5.80;3.53;;;27.70;56.50;;;;;;5020802;28;20029;-88
2022/08/12 08:15:13;;;;;;;5.72;3.28;;;28.10;56.40;;;;;;5018862;28;20164;-90
2022/08/12 08:17:39;;;;;;;8.55;3.28;;;28.30;56.20;;;;;;5005520;28;20032;-90
2022/08/12 08:20:08;;;;;;;5.20;3.30;;;28.50;56.30;;;;;;5023208;28;20033;-89
2022/08/12 08:22:37;;;;;;;10.95;3.42;;;28.60;55.90;;;;;;5015701;28;20048;-89
2022/08/12 08:25:05;;;;;;;6.72;3.42;;;28.80;55.30;;;;;;5031904;28;20045;-88
2022/08/12 08:27:46;;;;;;;3.65;3.35;;;28.90;54.90;;;;;;5028862;28;20046;-90
2022/08/12 08:30:12;;;;;;;3.20;2.70;;;29.00;54.80;;;;;;5016898;28;20030;-91
2022/08/12 08:32:40;;;;;;;3.10;2.80;;;29.10;54.10;;;;;;5006572;28;20045;-89
2022/08/12 08:35:10;;;;;;;9.32;3.05;;;29.30;54.10;;;;;;4994207;28;20025;-89
2022/08/12 08:37:45;;;;;;;6.15;3.78;;;29.40;53.10;;;;;;5020790;28;20029;-90
2022/08/12 08:43:06;;;;;;;7.72;2.47;;;29.80;52.90;;;;;;5013574;28;20060;-89
2022/08/12 08:45:33;;;;;;;4.05;2.60;;;29.90;52.00;;;;;;5031235;28;20037;-89
2022/08/12 08:47:59;;;;;;;8.25;2.60;;;30.00;52.60;;;;;;5009887;28;20405;-88
2022/08/12 08:50:27;;;;;;;4.75;2.72;;;30.20;50.30;;;;;;5005577;28;20026;-89
2022/08/12 08:52:55;;;;;;;6.18;2.90;;;30.30;51.00;;;;;;5014027;28;20132;-89
2022/08/12 08:55:21;;;;;;;4.90;2.67;;;30.50;49.10;;;;;;5015453;28;20072;-90
2022/08/12 08:57:52;;;;;;;6.85;2.42;;;30.60;48.90;;;;;;5004310;28;20168;-92
2022/08/12 09:00:19;;;;;;;6.70;2.78;;;30.70;49.30;;;;;;4999655;28;20029;-89
2022/08/12 09:02:45;;;;;;;7.13;2.47;;;30.90;49.40;;;;;;5018389;28;20037;-88
2022/08/12 09:05:14;;;;;;;7.35;2.60;;;31.00;48.80;;;;;;5013292;28;20537;-89
2022/08/12 09:07:42;;;;;;;6.07;2.17;;;31.20;47.50;;;;;;5003819;28;20543;-90
2022/08/12 09:10:08;;;;;;;4.15;1.85;;;31.30;47.50;;;;;;5014789;28;20030;-88
2022/08/12 09:15:18;;;;;;;5.65;2.22;;;31.40;46.50;;;;;;5027566;28;20040;-88
2022/08/12 09:18:00;;;;;;;4.95;2.38;;;31.50;46.40;;;;;;5029209;28;20030;-90
2022/08/12 09:20:27;;;;;;;4.70;2.10;;;31.50;46.40;;;;;;4989503;28;20565;-89
2022/08/12 09:23:04;;;;;;;8.80;2.10;;;31.70;47.00;;;;;;4996609;28;20485;-88
2022/08/12 09:25:30;;;;;;;3.83;2.50;;;32.00;44.90;;;;;;5018656;28;20490;-89
2022/08/12 09:27:58;;;;;;;5.70;2.28;;;32.10;45.00;;;;;;5001149;28;20142;-90
2022/08/12 09:30:24;;;;;;;5.38;2.63;;;32.10;42.90;;;;;;5020393;28;20033;-91
2022/08/12 09:32:49;;;;;;;3.33;1.70;;;32.10;41.70;;;;;;4999665;28;20034;-89
2022/08/12 09:35:26;;;;;;;5.72;2.50;;;32.30;43.90;;;;;;5013531;28;20037;-90
2022/08/12 09:37:54;;;;;;;4.00;2.10;;;32.30;41.50;;;;;;5010281;28;20037;-90
2022/08/12 09:40:25;;;;;;;3.75;1.88;;;32.50;42.30;;;;;;5010934;28;20032;-90
2022/08/12 09:45:35;;;;;;;6.85;1.90;;;32.80;42.50;;;;;;5022635;28;20045;-89
2022/08/12 09:48:03;;;;;;;2.58;2.20;;;32.80;41.50;;;;;;5010869;28;20037;-89
2022/08/12 09:50:32;;;;;;;6.72;2.70;;;32.90;41.20;;;;;;5004685;28;20036;-89
2022/08/12 09:53:12;;;;;;;1.98;1.80;;;33.00;40.10;;;;;;5005128;28;20071;-89
2022/08/12 09:55:41;;;;;;;4.45;2.33;;;33.00;40.60;;;;;;5024623;28;20501;-90
2022/08/12 09:58:07;;;;;;;3.47;2.05;;;33.20;40.00;;;;;;5021951;28;20517;-89
2022/08/12 10:00:35;;;;;;;2.58;1.98;;;33.20;39.60;;;;;;5015681;28;20033;-89
2022/08/12 10:03:10;;;;;;;2.65;2.42;;;33.40;38.30;;;;;;5010960;28;20041;-88
2022/08/12 10:05:40;;;;;;;4.13;2.25;;;33.60;39.00;;;;;;5008929;28;20034;-89
2022/08/12 10:08:09;;;;;;;4.82;2.17;;;33.60;39.50;;;;;;5030706;28;20087;-88
2022/08/12 10:13:42;;;;;;;7.07;2.00;;;34.60;37.00;;;;;;5014036;28;20039;-89
2022/08/12 10:16:17;;;;;;;2.22;2.03;;;34.10;37.80;;;;;;5015424;28;20033;-90
2022/08/12 10:19:04;;;;;;;4.22;2.00;;;33.80;38.20;;;;;;5011601;28;20025;-89
2022/08/12 10:21:35;;;;;;;6.78;2.03;;;33.70;37.30;;;;;;4999055;28;20422;-91
2022/08/12 10:24:14;;;;;;;5.32;2.10;;;33.70;38.70;;;;;;5019185;28;20429;-89
2022/08/12 10:29:46;;;;;;;4.88;2.35;;;34.00;37.80;;;;;;5017459;28;20125;-86
2022/08/12 10:32:19;;;;;;;6.40;2.28;;;34.00;37.60;;;;;;5028836;28;20071;-87
2022/08/12 10:34:49;;;;;;;5.32;1.85;;;34.10;38.60;;;;;;5027829;28;20033;-89
2022/08/12 10:37:15;;;;;;;5.68;2.03;;;34.00;38.50;;;;;;4994661;28;20029;-87
2022/08/12 10:40:00;;;;;;;4.03;1.85;;;33.90;36.00;;;;;;4981580;28;20035;-87
2022/08/12 10:45:21;;;;;;;4.57;2.00;;;35.00;36.70;;;;;;5005019;28;20124;-89
2022/08/12 10:48:19;;;;;;;6.72;2.20;;;34.90;37.60;;;;;;4991989;28;20049;-88
2022/08/12 10:50:45;;;;;;;5.30;2.45;;;34.70;37.70;;;;;;5006318;28;20104;-87
2022/08/12 10:53:11;;;;;;;3.95;2.30;;;34.60;37.50;;;;;;5007671;28;20567;-88
2022/08/12 10:55:37;;;;;;;3.33;1.95;;;34.90;37.60;;;;;;5018288;28;20034;-89
2022/08/12 10:58:02;;;;;;;6.43;2.30;;;35.80;36.70;;;;;;5020679;28;20105;-88
2022/08/12 11:00:30;;;;;;;4.78;1.98;;;35.40;36.50;;;;;;5010366;28;20026;-87
2022/08/12 11:02:56;;;;;;;7.15;2.20;;;36.40;35.20;;;;;;5017072;28;20374;-90
2022/08/12 11:05:22;;;;;;;2.60;2.35;;;35.90;35.40;;;;;;5008039;28;20155;-89
2022/08/12 11:07:50;;;;;;;3.63;2.20;;;35.40;36.80;;;;;;5017800;28;20643;-88
2022/08/12 11:10:15;;;;;;;4.47;2.00;;;35.40;37.30;;;;;;4994247;28;20025;-88
2022/08/12 11:12:45;;;;;;;3.42;2.33;;;36.30;36.00;;;;;;5013954;28;20142;-89
2022/08/12 11:15:11;;;;;;;2.45;2.00;;;36.10;35.80;;;;;;5012754;28;20034;-90
2022/08/12 11:17:36;;;;;;;2.42;2.00;;;36.90;35.40;;;;;;5000976;28;20136;-86
2022/08/12 11:20:07;;;;;;;5.93;2.42;;;36.10;36.90;;;;;;5020865;28;20033;-87
2022/08/12 11:22:33;;;;;;;5.15;2.30;;;36.20;36.10;;;;;;5015820;28;20033;-89
2022/08/12 11:24:59;;;;;;;4.32;2.08;;;36.10;36.10;;;;;;5027659;28;20605;-88
2022/08/12 11:27:32;;;;;;;3.60;1.98;;;35.90;36.10;;;;;;5019561;28;20065;-87
2022/08/12 11:29:58;;;;;;;3.30;1.95;;;36.40;36.00;;;;;;4995719;28;20033;-87
2022/08/12 11:32:23;;;;;;;4.18;2.03;;;36.30;36.40;;;;;;5011003;28;20056;-87
2022/08/12 11:34:51;;;;;;;2.65;1.90;;;36.40;35.60;;;;;;5001851;28;20037;-89
2022/08/12 11:37:17;;;;;;;4.30;2.20;;;36.30;35.30;;;;;;5004163;28;20109;-89
2022/08/12 11:39:42;;;;;;;5.10;2.13;;;36.40;35.00;;;;;;5011877;28;20104;-88
2022/08/12 11:42:08;;;;;;;4.03;2.00;;;36.20;33.40;;;;;;5028128;28;20028;-87
2022/08/12 11:44:37;;;;;;;7.38;1.98;;;36.30;34.30;;;;;;5008289;28;20398;-88
2022/08/12 11:47:02;;;;;;;2.78;1.80;;;36.50;33.70;;;;;;4999182;28;20029;-89
2022/08/12 11:49:29;;;;;;;3.90;1.90;;;36.30;34.40;;;;;;4989112;28;20026;-88
2022/08/12 11:52:02;;;;;;;2.80;1.92;;;36.70;34.10;;;;;;5001985;28;20029;-90
2022/08/12 11:54:32;;;;;;;3.05;1.60;;;36.50;34.40;;;;;;5013344;28;20123;-90
2022/08/12 11:57:03;;;;;;;4.00;1.77;;;36.50;32.60;;;;;;5009824;28;20023;-88
2022/08/12 11:59:30;;;;;;;5.43;1.73;;;36.40;31.70;;;;;;4989297;28;20034;-88
2022/08/12 12:01:55;;;;;;;4.30;2.00;;;36.30;32.00;;;;;;5012383;28;20034;-87
2022/08/12 12:04:28;;;;;;;2.72;2.00;;;36.30;32.60;;;;;;5016330;28;20041;-89
2022/08/12 12:06:54;;;;;;;2.10;1.90;;;36.50;32.60;;;;;;4999914;28;20375;-88
2022/08/12 12:09:20;;;;;;;7.30;1.98;;;36.60;33.10;;;;;;5017549;28;20055;-89
2022/08/12 12:11:45;;;;;;;1.73;1.60;;;36.50;31.10;;;;;;5025951;28;20032;-88
2022/08/12 12:14:11;;;;;;;2.42;1.92;;;36.40;32.90;;;;;;5016108;28;20025;-89
2022/08/12 12:16:37;;;;;;;3.63;1.85;;;36.90;33.30;;;;;;5031789;28;20045;-89
2022/08/12 12:19:04;;;;;;;1.88;1.77;;;37.30;33.00;;;;;;5016680;28;20033;-89
2022/08/12 12:21:32;;;;;;;9.82;2.28;;;37.00;31.80;;;;;;4994755;28;20029;-88
2022/08/12 12:23:58;;;;;;;3.95;1.60;;;36.70;31.00;;;;;;5022890;28;20443;-88
2022/08/12 12:26:36;;;;;;;3.88;1.80;;;36.70;32.50;;;;;;5006964;28;20029;-90
2022/08/12 12:29:02;;;;;;;4.25;1.65;;;36.60;30.60;;;;;;5004936;28;20049;-89
2022/08/12 12:31:28;;;;;;;12.45;2.05;;;36.50;30.80;;;;;;5010533;28;20378;-88
2022/08/12 12:33:53;;;;;;;2.75;1.42;;;36.50;30.10;;;;;;5004650;28;20116;-88
2022/08/12 12:36:21;;;;;;;4.60;1.83;;;36.50;31.30;;;;;;5014258;28;20030;-89
2022/08/12 12:38:48;;;;;;;2.20;2.00;;;36.50;31.20;;;;;;5013741;28;20040;-89
2022/08/12 12:41:14;;;;;;;2.13;1.90;;;37.00;31.60;;;;;;5011321;28;20042;-89
2022/08/12 12:43:40;;;;;;;3.72;2.00;;;36.80;33.00;;;;;;5031132;28;20044;-89
2022/08/12 12:46:08;;;;;;;2.42;1.70;;;37.00;32.90;;;;;;5012696;28;20375;-90
2022/08/12 12:48:34;;;;;;;1.65;1.52;;;36.90;31.90;;;;;;5013731;28;20049;-88
2022/08/12 12:51:14;;;;;;;1.80;1.45;;;37.50;32.00;;;;;;5012989;28;20393;-89
2022/08/12 12:53:44;;;;;;;2.38;1.50;;;38.70;30.70;;;;;;5021270;28;20056;-89
2022/08/12 12:56:14;;;;;;;6.10;1.80;;;39.50;29.30;;;;;;5006365;28;20028;-89
2022/08/12 12:58:41;;;;;;;3.08;1.45;;;38.80;30.00;;;;;;5021226;28;20037;-90
2022/08/12 13:01:07;;;;;;;7.80;1.75;;;38.30;31.10;;;;;;5008457;28;20061;-89
2022/08/12 13:03:34;;;;;;;4.97;1.67;;;37.60;28.80;;;;;;4990858;28;20052;-90
2022/08/12 13:06:00;;;;;;;4.20;1.50;;;37.50;30.10;;;;;;5007810;28;20024;-88
2022/08/12 13:08:30;;;;;;;3.63;1.88;;;37.30;28.70;;;;;;5013043;28;20036;-90
2022/08/12 13:11:01;;;;;;;2.30;1.58;;;37.30;29.90;;;;;;5001447;28;20033;-90
2022/08/12 13:13:31;;;;;;;3.45;1.80;;;37.20;29.00;;;;;;5015101;28;20033;-90
2022/08/12 13:16:00;;;;;;;4.18;1.90;;;37.10;29.10;;;;;;5005172;28;20060;-91
2022/08/12 13:18:35;;;;;;;3.70;1.67;;;37.20;29.90;;;;;;5031507;28;20026;-91
2022/08/12 13:21:12;;;;;;;6.18;1.63;;;37.20;30.30;;;;;;5020779;28;20029;-90
2022/08/12 13:23:38;;;;;;;4.22;1.70;;;37.50;30.20;;;;;;5018849;28;20037;-91
2022/08/12 13:26:06;;;;;;;3.83;1.50;;;37.80;30.20;;;;;;5011622;28;20526;-92
2022/08/12 13:28:32;;;;;;;3.05;1.73;;;37.60;30.40;;;;;;5009841;28;20052;-91
2022/08/12 13:31:01;;;;;;;2.85;1.70;;;37.50;29.20;;;;;;5028062;28;20117;-89
2022/08/12 13:33:27;;;;;;;7.47;1.70;;;37.40;29.10;;;;;;5016533;28;20033;-90
2022/08/12 13:35:59;;;;;;;5.63;1.42;;;37.60;30.10;;;;;;5020839;28;20120;-90
2022/08/12 13:38:43;;;;;;;2.50;1.27;;;37.60;30.00;;;;;;5030520;28;20034;-90
2022/08/12 13:41:31;;;;;;;2.90;1.73;;;37.60;30.10;;;;;;4986268;28;20472;-90
2022/08/12 13:43:56;;;;;;;3.50;1.20;;;37.60;29.20;;;;;;5025204;28;20035;-90
2022/08/12 13:46:26;;;;;;;3.55;1.50;;;37.40;28.80;;;;;;5019392;28;20113;-89
2022/08/12 13:48:56;;;;;;;4.93;1.40;;;37.40;29.20;;;;;;5019769;28;20552;-91
2022/08/12 13:51:31;;;;;;;3.90;1.35;;;37.40;29.70;;;;;;5017303;28;20029;-91
2022/08/12 13:53:57;;;;;;;5.22;1.77;;;37.40;29.60;;;;;;5010735;28;20052;-90
2022/08/12 13:56:23;;;;;;;8.57;2.03;;;37.40;29.70;;;;;;5000723;28;20033;-90
2022/08/12 13:58:50;;;;;;;2.17;1.63;;;37.40;29.00;;;;;;5000203;28;20048;-90
2022/08/12 14:01:16;;;;;;;4.18;2.00;;;37.40;29.60;;;;;;5016584;28;20037;-90
2022/08/12 14:03:42;;;;;;;5.07;1.60;;;37.30;28.80;;;;;;4992977;28;20034;-90
2022/08/12 14:06:15;;;;;;;2.97;1.33;;;37.30;29.00;;;;;;5030582;28;20195;-90
2022/08/12 14:08:41;;;;;;;2.05;1.60;;;37.20;28.50;;;;;;5027682;28;20083;-91
2022/08/12 14:11:07;;;;;;;1.65;1.55;;;37.30;28.60;;;;;;5030109;28;20068;-89
2022/08/12 14:13:41;;;;;;;3.85;1.80;;;37.20;29.00;;;;;;5023046;28;20450;-90
2022/08/12 14:16:09;;;;;;;5.97;2.00;;;37.20;28.10;;;;;;5015176;28;20493;-91
2022/08/12 14:18:38;;;;;;;3.83;1.50;;;37.20;27.90;;;;;;4993236;28;20034;-92
2022/08/12 14:21:11;;;;;;;2.90;1.85;;;37.20;28.60;;;;;;5022597;28;20091;-91
2022/08/12 14:23:43;;;;;;;7.93;1.52;;;37.20;28.50;;;;;;5035541;28;20038;-90
2022/08/12 14:26:13;;;;;;;4.18;1.40;;;37.20;28.60;;;;;;5018139;28;20064;-90
2022/08/12 14:28:39;;;;;;;4.47;1.50;;;37.10;28.10;;;;;;5009466;28;20374;-91
2022/08/12 14:31:09;;;;;;;3.97;1.48;;;37.10;28.70;;;;;;5005659;28;20021;-91
2022/08/12 14:33:36;;;;;;;4.57;1.55;;;37.00;28.50;;;;;;5033481;28;20394;-90
2022/08/12 14:36:46;;;;;;;7.18;1.88;;;37.00;29.40;;;;;;5024197;28;20029;-91